Schenley, Pennsylvania
Current Conditions -  °F | °C
As of 9:55 AM on Monday 22 Dec 2014 (Local Time) from KBTP Reporting Station
Scattered Clouds Scattered Clouds  
Wind Chill: 23°   Ceiling: Unl
Heat Index: 30°   Visibility: 9mi
Dew Point: 25°   Wind: 8mph
Humidity: 80%   Direction: 110°ESE
Pressure: 30.14"   Gusts: NA
Location:  40.68°N, 79.66°W
Report Text: KBTP 221455Z AUTO 11007KT 9SM SCT042 M01/M04 A3014 RMK AO1 54000
Loading
Personal Weather Stations






























Interactive Weather Map New forecast layout! Learn more

10-Day Weather Forecast

Advertisements
Track Severe Weather on mobile